sensor_id;sensor_type;location;lat;lon;timestamp;P1;durP1;ratioP1;P2;durP2;ratioP2
14592;SDS011;7383;52.354;9.756;2023-08-20T00:00:30;6.32;;;5.82;;
14592;SDS011;7383;52.354;9.756;2023-08-20T00:02:58;6.07;;;5.65;;
14592;SDS011;7383;52.354;9.756;2023-08-20T00:05:29;5.80;;;5.40;;
14592;SDS011;7383;52.354;9.756;2023-08-20T00:07:56;7.68;;;6.28;;
14592;SDS011;7383;52.354;9.756;2023-08-20T00:10:23;6.97;;;6.38;;
14592;SDS011;7383;52.354;9.756;2023-08-20T00:12:49;7.43;;;6.82;;
14592;SDS011;7383;52.354;9.756;2023-08-20T00:15:16;7.15;;;6.65;;
14592;SDS011;7383;52.354;9.756;2023-08-20T00:17:46;7.13;;;6.53;;
14592;SDS011;7383;52.354;9.756;2023-08-20T00:20:13;6.65;;;6.15;;
14592;SDS011;7383;52.354;9.756;2023-08-20T00:22:41;6.78;;;6.28;;
14592;SDS011;7383;52.354;9.756;2023-08-20T00:25:11;7.68;;;7.07;;
14592;SDS011;7383;52.354;9.756;2023-08-20T00:27:39;7.43;;;6.78;;
14592;SDS011;7383;52.354;9.756;2023-08-20T00:30:06;7.43;;;6.80;;
14592;SDS011;7383;52.354;9.756;2023-08-20T00:32:33;8.30;;;7.60;;
14592;SDS011;7383;52.354;9.756;2023-08-20T00:35:02;7.45;;;6.85;;
14592;SDS011;7383;52.354;9.756;2023-08-20T00:37:29;7.63;;;6.93;;
14592;SDS011;7383;52.354;9.756;2023-08-20T00:39:55;7.03;;;6.43;;
14592;SDS011;7383;52.354;9.756;2023-08-20T00:42:23;7.25;;;6.57;;
14592;SDS011;7383;52.354;9.756;2023-08-20T00:44:50;6.90;;;6.30;;
14592;SDS011;7383;52.354;9.756;2023-08-20T00:47:17;6.00;;;5.50;;
14592;SDS011;7383;52.354;9.756;2023-08-20T00:49:44;6.35;;;5.78;;
14592;SDS011;7383;52.354;9.756;2023-08-20T00:52:14;5.10;;;4.75;;
14592;SDS011;7383;52.354;9.756;2023-08-20T00:54:43;4.60;;;4.20;;
14592;SDS011;7383;52.354;9.756;2023-08-20T00:57:10;4.68;;;4.28;;
14592;SDS011;7383;52.354;9.756;2023-08-20T00:59:39;3.65;;;3.45;;
14592;SDS011;7383;52.354;9.756;2023-08-20T01:02:05;3.92;;;3.63;;
14592;SDS011;7383;52.354;9.756;2023-08-20T01:04:32;3.90;;;3.63;;
14592;SDS011;7383;52.354;9.756;2023-08-20T01:07:02;3.25;;;3.05;;
14592;SDS011;7383;52.354;9.756;2023-08-20T01:09:49;3.53;;;3.25;;
14592;SDS011;7383;52.354;9.756;2023-08-20T01:12:21;3.20;;;3.00;;
14592;SDS011;7383;52.354;9.756;2023-08-20T01:14:48;3.45;;;3.15;;
14592;SDS011;7383;52.354;9.756;2023-08-20T01:17:15;3.35;;;3.03;;
14592;SDS011;7383;52.354;9.756;2023-08-20T01:19:41;3.00;;;2.80;;
14592;SDS011;7383;52.354;9.756;2023-08-20T01:25:11;3.15;;;2.95;;
14592;SDS011;7383;52.354;9.756;2023-08-20T01:27:46;2.63;;;2.53;;
14592;SDS011;7383;52.354;9.756;2023-08-20T01:30:20;3.25;;;3.00;;
14592;SDS011;7383;52.354;9.756;2023-08-20T01:32:48;3.10;;;2.80;;
14592;SDS011;7383;52.354;9.756;2023-08-20T01:35:16;3.17;;;2.97;;
14592;SDS011;7383;52.354;9.756;2023-08-20T01:37:44;3.05;;;2.85;;
14592;SDS011;7383;52.354;9.756;2023-08-20T01:40:10;2.90;;;2.70;;
14592;SDS011;7383;52.354;9.756;2023-08-20T01:42:37;2.80;;;2.60;;
14592;SDS011;7383;52.354;9.756;2023-08-20T01:45:05;2.70;;;2.55;;
14592;SDS011;7383;52.354;9.756;2023-08-20T01:47:33;2.95;;;2.75;;
14592;SDS011;7383;52.354;9.756;2023-08-20T01:50:00;3.38;;;3.17;;
14592;SDS011;7383;52.354;9.756;2023-08-20T01:52:27;2.65;;;2.45;;
14592;SDS011;7383;52.354;9.756;2023-08-20T01:54:54;3.20;;;2.90;;
14592;SDS011;7383;52.354;9.756;2023-08-20T01:57:21;3.00;;;2.80;;
14592;SDS011;7383;52.354;9.756;2023-08-20T01:59:47;3.33;;;3.13;;
14592;SDS011;7383;52.354;9.756;2023-08-20T02:02:14;2.90;;;2.70;;
14592;SDS011;7383;52.354;9.756;2023-08-20T02:04:42;3.15;;;2.95;;
14592;SDS011;7383;52.354;9.756;2023-08-20T02:07:08;2.75;;;2.60;;
14592;SDS011;7383;52.354;9.756;2023-08-20T02:09:35;2.83;;;2.63;;
14592;SDS011;7383;52.354;9.756;2023-08-20T02:12:02;2.90;;;2.60;;
14592;SDS011;7383;52.354;9.756;2023-08-20T02:14:29;2.92;;;2.72;;
14592;SDS011;7383;52.354;9.756;2023-08-20T02:16:59;3.45;;;3.10;;
14592;SDS011;7383;52.354;9.756;2023-08-20T02:19:26;3.08;;;2.88;;
14592;SDS011;7383;52.354;9.756;2023-08-20T02:21:53;2.85;;;2.65;;
14592;SDS011;7383;52.354;9.756;2023-08-20T02:24:20;2.90;;;2.70;;
14592;SDS011;7383;52.354;9.756;2023-08-20T02:26:46;3.20;;;3.00;;
14592;SDS011;7383;52.354;9.756;2023-08-20T02:29:13;3.60;;;3.30;;
14592;SDS011;7383;52.354;9.756;2023-08-20T02:31:42;3.08;;;2.83;;
14592;SDS011;7383;52.354;9.756;2023-08-20T02:34:08;3.42;;;3.22;;
14592;SDS011;7383;52.354;9.756;2023-08-20T02:36:37;3.33;;;3.13;;
14592;SDS011;7383;52.354;9.756;2023-08-20T02:39:05;3.17;;;2.90;;
14592;SDS011;7383;52.354;9.756;2023-08-20T02:41:32;3.53;;;3.28;;
14592;SDS011;7383;52.354;9.756;2023-08-20T02:43:59;3.10;;;2.85;;
14592;SDS011;7383;52.354;9.756;2023-08-20T02:46:25;3.05;;;2.85;;
14592;SDS011;7383;52.354;9.756;2023-08-20T02:48:52;2.90;;;2.70;;
14592;SDS011;7383;52.354;9.756;2023-08-20T02:51:19;3.10;;;2.90;;
14592;SDS011;7383;52.354;9.756;2023-08-20T02:53:45;2.72;;;2.53;;
14592;SDS011;7383;52.354;9.756;2023-08-20T02:56:13;2.60;;;2.40;;
14592;SDS011;7383;52.354;9.756;2023-08-20T02:58:40;2.90;;;2.70;;
14592;SDS011;7383;52.354;9.756;2023-08-20T03:01:06;3.42;;;3.13;;
14592;SDS011;7383;52.354;9.756;2023-08-20T03:03:33;3.00;;;2.80;;
14592;SDS011;7383;52.354;9.756;2023-08-20T03:05:59;3.10;;;2.90;;
14592;SDS011;7383;52.354;9.756;2023-08-20T03:08:26;2.65;;;2.45;;
14592;SDS011;7383;52.354;9.756;2023-08-20T03:10:53;2.80;;;2.60;;
14592;SDS011;7383;52.354;9.756;2023-08-20T03:13:20;2.95;;;2.72;;
14592;SDS011;7383;52.354;9.756;2023-08-20T03:15:47;2.90;;;2.65;;
14592;SDS011;7383;52.354;9.756;2023-08-20T03:18:13;2.95;;;2.75;;
14592;SDS011;7383;52.354;9.756;2023-08-20T03:20:40;3.72;;;2.47;;
14592;SDS011;7383;52.354;9.756;2023-08-20T03:23:06;2.90;;;2.70;;
14592;SDS011;7383;52.354;9.756;2023-08-20T03:25:33;2.50;;;2.30;;
14592;SDS011;7383;52.354;9.756;2023-08-20T03:27:59;2.80;;;2.60;;
14592;SDS011;7383;52.354;9.756;2023-08-20T03:30:27;3.13;;;2.92;;
14592;SDS011;7383;52.354;9.756;2023-08-20T03:32:54;2.70;;;2.50;;
14592;SDS011;7383;52.354;9.756;2023-08-20T03:35:20;2.83;;;2.63;;
14592;SDS011;7383;52.354;9.756;2023-08-20T03:37:47;3.03;;;2.83;;
14592;SDS011;7383;52.354;9.756;2023-08-20T03:40:13;3.10;;;2.80;;
14592;SDS011;7383;52.354;9.756;2023-08-20T03:42:40;3.00;;;2.80;;
14592;SDS011;7383;52.354;9.756;2023-08-20T03:45:07;2.95;;;2.75;;
14592;SDS011;7383;52.354;9.756;2023-08-20T03:47:35;3.03;;;2.83;;
14592;SDS011;7383;52.354;9.756;2023-08-20T03:50:02;2.72;;;2.53;;
14592;SDS011;7383;52.354;9.756;2023-08-20T03:52:29;2.72;;;2.53;;
14592;SDS011;7383;52.354;9.756;2023-08-20T03:54:56;3.00;;;2.80;;
14592;SDS011;7383;52.354;9.756;2023-08-20T03:57:22;3.38;;;2.90;;
14592;SDS011;7383;52.354;9.756;2023-08-20T03:59:49;3.03;;;2.83;;
14592;SDS011;7383;52.354;9.756;2023-08-20T04:02:15;2.70;;;2.60;;
14592;SDS011;7383;52.354;9.756;2023-08-20T04:04:43;2.85;;;2.65;;
14592;SDS011;7383;52.354;9.756;2023-08-20T04:07:09;2.83;;;2.63;;
14592;SDS011;7383;52.354;9.756;2023-08-20T04:09:36;3.20;;;3.00;;
14592;SDS011;7383;52.354;9.756;2023-08-20T04:12:03;3.35;;;3.05;;
14592;SDS011;7383;52.354;9.756;2023-08-20T04:14:30;2.97;;;2.78;;
14592;SDS011;7383;52.354;9.756;2023-08-20T04:16:57;3.30;;;3.10;;
14592;SDS011;7383;52.354;9.756;2023-08-20T04:19:23;3.08;;;2.75;;
14592;SDS011;7383;52.354;9.756;2023-08-20T04:21:51;3.05;;;2.80;;
14592;SDS011;7383;52.354;9.756;2023-08-20T04:24:18;2.83;;;2.63;;
14592;SDS011;7383;52.354;9.756;2023-08-20T04:26:44;2.70;;;2.50;;
14592;SDS011;7383;52.354;9.756;2023-08-20T04:29:11;3.25;;;2.90;;
14592;SDS011;7383;52.354;9.756;2023-08-20T04:31:37;3.22;;;3.03;;
14592;SDS011;7383;52.354;9.756;2023-08-20T04:34:03;2.40;;;2.30;;
14592;SDS011;7383;52.354;9.756;2023-08-20T04:36:30;2.60;;;2.50;;
14592;SDS011;7383;52.354;9.756;2023-08-20T04:38:58;2.95;;;2.75;;
14592;SDS011;7383;52.354;9.756;2023-08-20T04:41:24;2.90;;;2.70;;
14592;SDS011;7383;52.354;9.756;2023-08-20T04:43:51;2.85;;;2.58;;
14592;SDS011;7383;52.354;9.756;2023-08-20T04:46:18;2.45;;;2.35;;
14592;SDS011;7383;52.354;9.756;2023-08-20T04:48:45;3.20;;;2.90;;
14592;SDS011;7383;52.354;9.756;2023-08-20T04:51:12;4.05;;;3.30;;
14592;SDS011;7383;52.354;9.756;2023-08-20T04:53:38;3.20;;;2.90;;
14592;SDS011;7383;52.354;9.756;2023-08-20T04:56:06;2.85;;;2.67;;
14592;SDS011;7383;52.354;9.756;2023-08-20T04:58:33;2.72;;;2.63;;
14592;SDS011;7383;52.354;9.756;2023-08-20T05:00:59;3.53;;;3.22;;
14592;SDS011;7383;52.354;9.756;2023-08-20T05:03:26;3.00;;;2.80;;
14592;SDS011;7383;52.354;9.756;2023-08-20T05:05:52;2.95;;;2.75;;
14592;SDS011;7383;52.354;9.756;2023-08-20T05:08:19;3.13;;;2.92;;
14592;SDS011;7383;52.354;9.756;2023-08-20T05:10:45;3.10;;;2.90;;
14592;SDS011;7383;52.354;9.756;2023-08-20T05:13:13;3.38;;;3.17;;
14592;SDS011;7383;52.354;9.756;2023-08-20T05:15:39;2.90;;;2.70;;
14592;SDS011;7383;52.354;9.756;2023-08-20T05:18:06;2.92;;;2.72;;
14592;SDS011;7383;52.354;9.756;2023-08-20T05:20:32;2.55;;;2.42;;
14592;SDS011;7383;52.354;9.756;2023-08-20T05:22:59;3.13;;;2.92;;
14592;SDS011;7383;52.354;9.756;2023-08-20T05:25:25;2.80;;;2.60;;
14592;SDS011;7383;52.354;9.756;2023-08-20T05:27:52;2.70;;;2.50;;
14592;SDS011;7383;52.354;9.756;2023-08-20T05:30:20;2.80;;;2.60;;
14592;SDS011;7383;52.354;9.756;2023-08-20T05:32:46;2.78;;;2.58;;
14592;SDS011;7383;52.354;9.756;2023-08-20T05:35:13;2.70;;;2.55;;
14592;SDS011;7383;52.354;9.756;2023-08-20T05:37:39;3.10;;;2.90;;
14592;SDS011;7383;52.354;9.756;2023-08-20T05:40:06;2.35;;;2.15;;
14592;SDS011;7383;52.354;9.756;2023-08-20T05:42:34;2.67;;;2.47;;
14592;SDS011;7383;52.354;9.756;2023-08-20T05:45:01;2.70;;;2.50;;
14592;SDS011;7383;52.354;9.756;2023-08-20T05:47:29;3.13;;;2.88;;
14592;SDS011;7383;52.354;9.756;2023-08-20T05:49:55;2.60;;;2.40;;
14592;SDS011;7383;52.354;9.756;2023-08-20T05:52:22;2.30;;;2.20;;
14592;SDS011;7383;52.354;9.756;2023-08-20T05:54:48;2.30;;;2.20;;
14592;SDS011;7383;52.354;9.756;2023-08-20T05:57:15;2.75;;;2.55;;
14592;SDS011;7383;52.354;9.756;2023-08-20T05:59:42;2.70;;;2.50;;
14592;SDS011;7383;52.354;9.756;2023-08-20T06:02:08;2.60;;;2.40;;
14592;SDS011;7383;52.354;9.756;2023-08-20T06:04:36;2.70;;;2.50;;
14592;SDS011;7383;52.354;9.756;2023-08-20T06:07:03;2.40;;;2.30;;
14592;SDS011;7383;52.354;9.756;2023-08-20T06:09:29;2.50;;;2.30;;
14592;SDS011;7383;52.354;9.756;2023-08-20T06:11:56;2.15;;;2.05;;
14592;SDS011;7383;52.354;9.756;2023-08-20T06:14:22;2.50;;;2.30;;
14592;SDS011;7383;52.354;9.756;2023-08-20T06:16:49;2.40;;;2.22;;
14592;SDS011;7383;52.354;9.756;2023-08-20T06:19:16;2.63;;;2.42;;
14592;SDS011;7383;52.354;9.756;2023-08-20T06:21:44;2.13;;;2.03;;
14592;SDS011;7383;52.354;9.756;2023-08-20T06:24:10;2.80;;;2.60;;
14592;SDS011;7383;52.354;9.756;2023-08-20T06:26:37;2.67;;;2.47;;
14592;SDS011;7383;52.354;9.756;2023-08-20T06:29:03;2.65;;;2.45;;
14592;SDS011;7383;52.354;9.756;2023-08-20T06:31:30;2.60;;;2.40;;
14592;SDS011;7383;52.354;9.756;2023-08-20T06:33:56;2.92;;;2.72;;
14592;SDS011;7383;52.354;9.756;2023-08-20T06:36:23;2.80;;;2.60;;
14592;SDS011;7383;52.354;9.756;2023-08-20T06:38:51;2.40;;;2.20;;
14592;SDS011;7383;52.354;9.756;2023-08-20T06:41:17;2.53;;;2.33;;
14592;SDS011;7383;52.354;9.756;2023-08-20T06:43:44;2.50;;;2.35;;
14592;SDS011;7383;52.354;9.756;2023-08-20T06:46:10;2.20;;;2.10;;
14592;SDS011;7383;52.354;9.756;2023-08-20T06:48:37;2.20;;;2.10;;
14592;SDS011;7383;52.354;9.756;2023-08-20T06:51:07;2.45;;;2.25;;
14592;SDS011;7383;52.354;9.756;2023-08-20T06:53:37;2.47;;;2.28;;
14592;SDS011;7383;52.354;9.756;2023-08-20T06:56:06;2.22;;;2.10;;
14592;SDS011;7383;52.354;9.756;2023-08-20T06:58:34;2.97;;;2.30;;
14592;SDS011;7383;52.354;9.756;2023-08-20T07:01:00;2.80;;;2.60;;
14592;SDS011;7383;52.354;9.756;2023-08-20T07:03:33;2.58;;;2.38;;
14592;SDS011;7383;52.354;9.756;2023-08-20T07:05:59;2.40;;;2.20;;
14592;SDS011;7383;52.354;9.756;2023-08-20T07:08:26;2.75;;;2.55;;
14592;SDS011;7383;52.354;9.756;2023-08-20T07:10:53;2.42;;;2.33;;
14592;SDS011;7383;52.354;9.756;2023-08-20T07:13:21;2.80;;;2.60;;
14592;SDS011;7383;52.354;9.756;2023-08-20T07:15:48;2.35;;;2.10;;
14592;SDS011;7383;52.354;9.756;2023-08-20T07:18:15;2.80;;;2.30;;
14592;SDS011;7383;52.354;9.756;2023-08-20T07:20:42;2.67;;;2.35;;
14592;SDS011;7383;52.354;9.756;2023-08-20T07:23:09;2.53;;;2.30;;
14592;SDS011;7383;52.354;9.756;2023-08-20T07:25:36;2.20;;;2.00;;
14592;SDS011;7383;52.354;9.756;2023-08-20T07:28:03;2.13;;;2.00;;
14592;SDS011;7383;52.354;9.756;2023-08-20T07:32:59;2.33;;;2.15;;
14592;SDS011;7383;52.354;9.756;2023-08-20T07:35:26;2.40;;;2.10;;
14592;SDS011;7383;52.354;9.756;2023-08-20T07:37:56;1.90;;;1.80;;
14592;SDS011;7383;52.354;9.756;2023-08-20T07:40:23;2.22;;;2.03;;
14592;SDS011;7383;52.354;9.756;2023-08-20T07:42:52;1.80;;;1.70;;
14592;SDS011;7383;52.354;9.756;2023-08-20T07:45:19;2.50;;;2.03;;
14592;SDS011;7383;52.354;9.756;2023-08-20T07:47:49;2.20;;;2.00;;
14592;SDS011;7383;52.354;9.756;2023-08-20T07:50:16;2.28;;;1.95;;
14592;SDS011;7383;52.354;9.756;2023-08-20T07:52:42;2.33;;;2.13;;
14592;SDS011;7383;52.354;9.756;2023-08-20T07:55:09;2.50;;;2.17;;
14592;SDS011;7383;52.354;9.756;2023-08-20T07:57:35;2.25;;;2.10;;
14592;SDS011;7383;52.354;9.756;2023-08-20T08:00:02;2.85;;;2.00;;
14592;SDS011;7383;52.354;9.756;2023-08-20T08:02:30;2.28;;;2.03;;
14592;SDS011;7383;52.354;9.756;2023-08-20T08:04:58;2.15;;;2.05;;
14592;SDS011;7383;52.354;9.756;2023-08-20T08:07:24;2.30;;;2.00;;
14592;SDS011;7383;52.354;9.756;2023-08-20T08:09:51;2.15;;;2.05;;
14592;SDS011;7383;52.354;9.756;2023-08-20T08:12:17;2.30;;;2.13;;
14592;SDS011;7383;52.354;9.756;2023-08-20T08:14:44;2.25;;;2.05;;
14592;SDS011;7383;52.354;9.756;2023-08-20T08:17:11;2.17;;;2.00;;
14592;SDS011;7383;52.354;9.756;2023-08-20T08:19:37;2.40;;;2.20;;
14592;SDS011;7383;52.354;9.756;2023-08-20T08:22:05;1.88;;;1.77;;
14592;SDS011;7383;52.354;9.756;2023-08-20T08:24:32;2.40;;;2.20;;
14592;SDS011;7383;52.354;9.756;2023-08-20T08:26:59;2.00;;;1.90;;
14592;SDS011;7383;52.354;9.756;2023-08-20T08:29:25;2.30;;;2.17;;
14592;SDS011;7383;52.354;9.756;2023-08-20T08:31:52;2.50;;;2.30;;
14592;SDS011;7383;52.354;9.756;2023-08-20T08:34:18;2.28;;;2.08;;
14592;SDS011;7383;52.354;9.756;2023-08-20T08:36:45;2.30;;;2.20;;
14592;SDS011;7383;52.354;9.756;2023-08-20T08:39:13;2.47;;;2.28;;
14592;SDS011;7383;52.354;9.756;2023-08-20T08:41:39;2.45;;;2.28;;
14592;SDS011;7383;52.354;9.756;2023-08-20T08:44:08;2.70;;;2.30;;
14592;SDS011;7383;52.354;9.756;2023-08-20T08:46:36;2.28;;;2.17;;
14592;SDS011;7383;52.354;9.756;2023-08-20T08:49:04;1.90;;;1.80;;
14592;SDS011;7383;52.354;9.756;2023-08-20T08:51:32;2.10;;;2.00;;
14592;SDS011;7383;52.354;9.756;2023-08-20T08:54:00;2.10;;;2.00;;
14592;SDS011;7383;52.354;9.756;2023-08-20T08:56:31;2.83;;;2.15;;
14592;SDS011;7383;52.354;9.756;2023-08-20T08:58:58;2.10;;;1.90;;
14592;SDS011;7383;52.354;9.756;2023-08-20T09:01:24;2.05;;;1.95;;
14592;SDS011;7383;52.354;9.756;2023-08-20T09:03:51;2.35;;;2.08;;
14592;SDS011;7383;52.354;9.756;2023-08-20T09:06:18;2.00;;;1.90;;
14592;SDS011;7383;52.354;9.756;2023-08-20T09:08:44;2.03;;;1.92;;
14592;SDS011;7383;52.354;9.756;2023-08-20T09:11:11;2.05;;;1.92;;
14592;SDS011;7383;52.354;9.756;2023-08-20T09:13:40;2.28;;;2.15;;
14592;SDS011;7383;52.354;9.756;2023-08-20T09:16:09;2.10;;;1.90;;
14592;SDS011;7383;52.354;9.756;2023-08-20T09:18:37;2.08;;;1.90;;
14592;SDS011;7383;52.354;9.756;2023-08-20T09:21:06;1.75;;;1.65;;
14592;SDS011;7383;52.354;9.756;2023-08-20T09:23:33;1.90;;;1.80;;
14592;SDS011;7383;52.354;9.756;2023-08-20T09:26:01;1.75;;;1.65;;
14592;SDS011;7383;52.354;9.756;2023-08-20T09:28:28;2.20;;;2.00;;
14592;SDS011;7383;52.354;9.756;2023-08-20T09:30:57;1.90;;;1.80;;
14592;SDS011;7383;52.354;9.756;2023-08-20T09:33:26;1.80;;;1.65;;
14592;SDS011;7383;52.354;9.756;2023-08-20T09:35:53;1.60;;;1.48;;
14592;SDS011;7383;52.354;9.756;2023-08-20T09:38:20;2.20;;;1.88;;
14592;SDS011;7383;52.354;9.756;2023-08-20T09:40:47;1.67;;;1.58;;
14592;SDS011;7383;52.354;9.756;2023-08-20T09:43:18;1.90;;;1.80;;
14592;SDS011;7383;52.354;9.756;2023-08-20T09:45:46;1.60;;;1.50;;
14592;SDS011;7383;52.354;9.756;2023-08-20T09:48:16;1.77;;;1.60;;
14592;SDS011;7383;52.354;9.756;2023-08-20T09:50:47;1.80;;;1.70;;
14592;SDS011;7383;52.354;9.756;2023-08-20T09:53:17;1.88;;;1.75;;
14592;SDS011;7383;52.354;9.756;2023-08-20T09:55:48;1.90;;;1.80;;
14592;SDS011;7383;52.354;9.756;2023-08-20T09:58:17;1.70;;;1.60;;
14592;SDS011;7383;52.354;9.756;2023-08-20T10:00:46;1.80;;;1.70;;
14592;SDS011;7383;52.354;9.756;2023-08-20T10:03:15;1.80;;;1.70;;
14592;SDS011;7383;52.354;9.756;2023-08-20T10:05:43;1.63;;;1.52;;
14592;SDS011;7383;52.354;9.756;2023-08-20T10:08:12;1.40;;;1.40;;
14592;SDS011;7383;52.354;9.756;2023-08-20T10:10:39;1.60;;;1.50;;
14592;SDS011;7383;52.354;9.756;2023-08-20T10:13:05;1.45;;;1.45;;
14592;SDS011;7383;52.354;9.756;2023-08-20T10:15:32;1.90;;;1.80;;
14592;SDS011;7383;52.354;9.756;2023-08-20T10:18:01;1.70;;;1.60;;
14592;SDS011;7383;52.354;9.756;2023-08-20T10:20:31;1.50;;;1.45;;
14592;SDS011;7383;52.354;9.756;2023-08-20T10:23:00;1.70;;;1.60;;
14592;SDS011;7383;52.354;9.756;2023-08-20T10:25:28;1.50;;;1.50;;
14592;SDS011;7383;52.354;9.756;2023-08-20T10:28:10;1.80;;;1.70;;
14592;SDS011;7383;52.354;9.756;2023-08-20T10:30:38;1.52;;;1.42;;
14592;SDS011;7383;52.354;9.756;2023-08-20T10:33:05;1.50;;;1.40;;
14592;SDS011;7383;52.354;9.756;2023-08-20T10:35:47;1.67;;;1.58;;
14592;SDS011;7383;52.354;9.756;2023-08-20T10:38:15;1.73;;;1.60;;
14592;SDS011;7383;52.354;9.756;2023-08-20T10:40:52;1.42;;;1.33;;
14592;SDS011;7383;52.354;9.756;2023-08-20T10:43:26;1.85;;;1.75;;
14592;SDS011;7383;52.354;9.756;2023-08-20T10:46:02;1.58;;;1.45;;
14592;SDS011;7383;52.354;9.756;2023-08-20T10:48:29;1.30;;;1.30;;
14592;SDS011;7383;52.354;9.756;2023-08-20T10:50:57;1.63;;;1.52;;
14592;SDS011;7383;52.354;9.756;2023-08-20T10:53:25;1.92;;;1.65;;
14592;SDS011;7383;52.354;9.756;2023-08-20T10:55:51;1.80;;;1.70;;
14592;SDS011;7383;52.354;9.756;2023-08-20T10:58:18;1.33;;;1.25;;
14592;SDS011;7383;52.354;9.756;2023-08-20T11:03:41;1.50;;;1.40;;
14592;SDS011;7383;52.354;9.756;2023-08-20T11:06:10;1.65;;;1.55;;
14592;SDS011;7383;52.354;9.756;2023-08-20T11:08:37;1.73;;;1.63;;
14592;SDS011;7383;52.354;9.756;2023-08-20T11:11:04;1.60;;;1.50;;
14592;SDS011;7383;52.354;9.756;2023-08-20T11:13:32;1.67;;;1.60;;
14592;SDS011;7383;52.354;9.756;2023-08-20T11:15:59;1.55;;;1.45;;
14592;SDS011;7383;52.354;9.756;2023-08-20T11:18:26;1.55;;;1.45;;
14592;SDS011;7383;52.354;9.756;2023-08-20T11:20:53;2.05;;;1.70;;
14592;SDS011;7383;52.354;9.756;2023-08-20T11:23:21;1.63;;;1.52;;
14592;SDS011;7383;52.354;9.756;2023-08-20T11:25:48;1.70;;;1.60;;
14592;SDS011;7383;52.354;9.756;2023-08-20T11:28:14;2.55;;;1.60;;
14592;SDS011;7383;52.354;9.756;2023-08-20T11:30:41;1.50;;;1.40;;
14592;SDS011;7383;52.354;9.756;2023-08-20T11:33:07;1.35;;;1.35;;
14592;SDS011;7383;52.354;9.756;2023-08-20T11:35:35;1.83;;;1.73;;
14592;SDS011;7383;52.354;9.756;2023-08-20T11:38:02;1.55;;;1.45;;
14592;SDS011;7383;52.354;9.756;2023-08-20T11:40:30;1.80;;;1.60;;
14592;SDS011;7383;52.354;9.756;2023-08-20T11:42:57;1.73;;;1.63;;
14592;SDS011;7383;52.354;9.756;2023-08-20T11:45:24;1.40;;;1.30;;
14592;SDS011;7383;52.354;9.756;2023-08-20T11:47:55;1.40;;;1.40;;
14592;SDS011;7383;52.354;9.756;2023-08-20T11:50:22;1.50;;;1.40;;
14592;SDS011;7383;52.354;9.756;2023-08-20T11:52:51;1.98;;;1.88;;
14592;SDS011;7383;52.354;9.756;2023-08-20T11:55:21;1.50;;;1.50;;
14592;SDS011;7383;52.354;9.756;2023-08-20T11:57:51;1.40;;;1.40;;
14592;SDS011;7383;52.354;9.756;2023-08-20T12:00:23;1.40;;;1.40;;
14592;SDS011;7383;52.354;9.756;2023-08-20T12:02:52;1.65;;;1.55;;
14592;SDS011;7383;52.354;9.756;2023-08-20T12:05:19;2.28;;;1.95;;
14592;SDS011;7383;52.354;9.756;2023-08-20T12:07:54;1.90;;;1.80;;
14592;SDS011;7383;52.354;9.756;2023-08-20T12:10:24;1.80;;;1.70;;
14592;SDS011;7383;52.354;9.756;2023-08-20T12:12:53;1.80;;;1.70;;
14592;SDS011;7383;52.354;9.756;2023-08-20T12:15:21;1.90;;;1.80;;
14592;SDS011;7383;52.354;9.756;2023-08-20T12:17:57;1.80;;;1.70;;
14592;SDS011;7383;52.354;9.756;2023-08-20T12:20:29;1.55;;;1.50;;
14592;SDS011;7383;52.354;9.756;2023-08-20T12:22:58;1.60;;;1.50;;
14592;SDS011;7383;52.354;9.756;2023-08-20T12:25:26;2.00;;;1.90;;
14592;SDS011;7383;52.354;9.756;2023-08-20T12:27:57;2.17;;;2.08;;
14592;SDS011;7383;52.354;9.756;2023-08-20T12:30:23;2.05;;;1.90;;
14592;SDS011;7383;52.354;9.756;2023-08-20T12:32:50;2.53;;;2.33;;
14592;SDS011;7383;52.354;9.756;2023-08-20T12:35:16;2.00;;;1.90;;
14592;SDS011;7383;52.354;9.756;2023-08-20T12:37:43;2.20;;;2.10;;
14592;SDS011;7383;52.354;9.756;2023-08-20T12:40:10;2.20;;;2.10;;
14592;SDS011;7383;52.354;9.756;2023-08-20T12:42:38;2.17;;;2.08;;
14592;SDS011;7383;52.354;9.756;2023-08-20T12:53:06;1.90;;;1.80;;
14592;SDS011;7383;52.354;9.756;2023-08-20T12:55:33;1.98;;;1.88;;
14592;SDS011;7383;52.354;9.756;2023-08-20T12:57:59;2.25;;;2.08;;
14592;SDS011;7383;52.354;9.756;2023-08-20T13:00:26;2.03;;;1.92;;
14592;SDS011;7383;52.354;9.756;2023-08-20T13:02:53;2.03;;;1.92;;
14592;SDS011;7383;52.354;9.756;2023-08-20T13:05:22;2.00;;;1.90;;
14592;SDS011;7383;52.354;9.756;2023-08-20T13:07:49;2.10;;;2.00;;
14592;SDS011;7383;52.354;9.756;2023-08-20T13:10:18;1.98;;;1.88;;
14592;SDS011;7383;52.354;9.756;2023-08-20T13:12:47;2.30;;;1.88;;
14592;SDS011;7383;52.354;9.756;2023-08-20T13:15:15;1.98;;;1.88;;
14592;SDS011;7383;52.354;9.756;2023-08-20T13:17:42;1.88;;;1.77;;
14592;SDS011;7383;52.354;9.756;2023-08-20T13:20:11;1.73;;;1.73;;
14592;SDS011;7383;52.354;9.756;2023-08-20T13:22:38;1.90;;;1.80;;
14592;SDS011;7383;52.354;9.756;2023-08-20T13:25:04;1.80;;;1.70;;
14592;SDS011;7383;52.354;9.756;2023-08-20T13:27:33;1.77;;;1.67;;
14592;SDS011;7383;52.354;9.756;2023-08-20T13:29:59;1.70;;;1.60;;
14592;SDS011;7383;52.354;9.756;2023-08-20T13:32:26;1.65;;;1.55;;
14592;SDS011;7383;52.354;9.756;2023-08-20T13:34:52;1.55;;;1.50;;
14592;SDS011;7383;52.354;9.756;2023-08-20T13:37:19;1.90;;;1.80;;
14592;SDS011;7383;52.354;9.756;2023-08-20T13:39:45;1.83;;;1.77;;
14592;SDS011;7383;52.354;9.756;2023-08-20T13:42:12;1.90;;;1.80;;
14592;SDS011;7383;52.354;9.756;2023-08-20T13:44:39;1.73;;;1.63;;
14592;SDS011;7383;52.354;9.756;2023-08-20T13:47:06;1.40;;;1.40;;
14592;SDS011;7383;52.354;9.756;2023-08-20T13:49:32;1.90;;;1.80;;
14592;SDS011;7383;52.354;9.756;2023-08-20T13:51:59;1.65;;;1.63;;
14592;SDS011;7383;52.354;9.756;2023-08-20T13:54:25;2.00;;;1.90;;
14592;SDS011;7383;52.354;9.756;2023-08-20T13:56:52;2.15;;;1.95;;
14592;SDS011;7383;52.354;9.756;2023-08-20T13:59:18;1.80;;;1.70;;
14592;SDS011;7383;52.354;9.756;2023-08-20T14:01:46;1.80;;;1.70;;
14592;SDS011;7383;52.354;9.756;2023-08-20T14:04:13;1.85;;;1.75;;
14592;SDS011;7383;52.354;9.756;2023-08-20T14:06:39;1.70;;;1.70;;
14592;SDS011;7383;52.354;9.756;2023-08-20T14:09:06;1.55;;;1.55;;
14592;SDS011;7383;52.354;9.756;2023-08-20T14:11:33;1.65;;;1.55;;
14592;SDS011;7383;52.354;9.756;2023-08-20T14:14:00;1.60;;;1.50;;
14592;SDS011;7383;52.354;9.756;2023-08-20T14:16:26;1.65;;;1.60;;
14592;SDS011;7383;52.354;9.756;2023-08-20T14:18:54;1.95;;;1.75;;
14592;SDS011;7383;52.354;9.756;2023-08-20T14:21:20;1.92;;;1.90;;
14592;SDS011;7383;52.354;9.756;2023-08-20T14:23:47;1.90;;;1.80;;
14592;SDS011;7383;52.354;9.756;2023-08-20T14:26:13;2.08;;;1.88;;
14592;SDS011;7383;52.354;9.756;2023-08-20T14:28:40;2.30;;;2.10;;
14592;SDS011;7383;52.354;9.756;2023-08-20T14:31:08;2.00;;;1.90;;
14592;SDS011;7383;52.354;9.756;2023-08-20T14:33:35;1.90;;;1.83;;
14592;SDS011;7383;52.354;9.756;2023-08-20T14:36:03;2.20;;;2.10;;
14592;SDS011;7383;52.354;9.756;2023-08-20T14:38:30;2.17;;;2.03;;
14592;SDS011;7383;52.354;9.756;2023-08-20T14:40:58;2.00;;;1.90;;
14592;SDS011;7383;52.354;9.756;2023-08-20T14:43:26;1.80;;;1.70;;
14592;SDS011;7383;52.354;9.756;2023-08-20T14:45:52;2.30;;;2.20;;
14592;SDS011;7383;52.354;9.756;2023-08-20T14:48:19;2.30;;;2.10;;
14592;SDS011;7383;52.354;9.756;2023-08-20T14:50:45;2.10;;;2.00;;
14592;SDS011;7383;52.354;9.756;2023-08-20T14:53:14;2.20;;;2.10;;
14592;SDS011;7383;52.354;9.756;2023-08-20T14:55:41;2.20;;;2.10;;
14592;SDS011;7383;52.354;9.756;2023-08-20T14:58:07;2.00;;;1.90;;
14592;SDS011;7383;52.354;9.756;2023-08-20T15:00:33;1.90;;;1.80;;
14592;SDS011;7383;52.354;9.756;2023-08-20T15:03:00;1.90;;;1.80;;
14592;SDS011;7383;52.354;9.756;2023-08-20T15:05:28;2.70;;;2.20;;
14592;SDS011;7383;52.354;9.756;2023-08-20T15:07:55;2.13;;;2.03;;
14592;SDS011;7383;52.354;9.756;2023-08-20T15:10:23;2.00;;;1.90;;
14592;SDS011;7383;52.354;9.756;2023-08-20T15:12:49;1.92;;;1.90;;
14592;SDS011;7383;52.354;9.756;2023-08-20T15:15:16;1.98;;;1.88;;
14592;SDS011;7383;52.354;9.756;2023-08-20T15:17:43;1.70;;;1.70;;